Atwater, New York
Current Conditions -  °F | °C
As of 6:56 PM on Monday 24 Nov 2014 (Local Time) from KITH Reporting Station
Light Rain Light Rain  
Wind Chill: 62°   Ceiling: 6500
Heat Index: 62°   Visibility: 10mi
Dew Point: 51°   Wind: 16mph
Humidity: 67%   Direction: 220°SW
Pressure: 29.53"   Gusts: NA
Location:  42.6734°N, 76.6263°W
Report Text: KITH 242356Z 22014KT 10SM -RA BKN065 17/11 A2953 RMK AO2 53035 60000 T01660105 10205 20166 RAB50 P0000 SLP997
Loading
Personal Weather Stations






























Interactive Weather Map New forecast layout! Learn more

10-Day Weather Forecast

Advertisements
Track Severe Weather on mobile